createdAt,value
2022-09-24T00:00:13.604Z,17.8
2022-09-24T00:05:51.569Z,17.8
2022-09-24T00:11:12.671Z,17.8
2022-09-24T00:16:50.212Z,17.8
2022-09-24T00:22:26.286Z,17.8
2022-09-24T00:28:03.723Z,17.7
2022-09-24T00:33:41.688Z,17.7
2022-09-24T00:39:19.770Z,17.7
2022-09-24T00:44:25.365Z,17.7
2022-09-24T00:49:47.156Z,17.7
2022-09-24T00:54:54.268Z,17.7
2022-09-24T01:00:15.536Z,17.7
2022-09-24T01:05:38.550Z,17.7
2022-09-24T01:10:44.962Z,17.6
2022-09-24T01:16:06.746Z,17.6
2022-09-24T01:21:29.002Z,17.6
2022-09-24T01:26:52.987Z,17.6
2022-09-24T01:32:14.949Z,17.6
2022-09-24T01:37:38.736Z,17.6
2022-09-24T01:43:00.585Z,17.6
2022-09-24T01:48:08.841Z,17.6
2022-09-24T01:53:31.129Z,17.6
2022-09-24T01:59:09.139Z,17.6
2022-09-24T02:04:00.247Z,17.6
2022-09-24T02:09:22.405Z,17.5
2022-09-24T02:14:44.417Z,17.5
2022-09-24T02:20:21.299Z,17.5
2022-09-24T02:25:28.537Z,17.5
2022-09-24T02:31:06.441Z,17.5
2022-09-24T02:36:28.078Z,17.5
2022-09-24T02:42:05.855Z,17.5
2022-09-24T02:47:28.454Z,17.4
2022-09-24T02:53:04.992Z,17.4
2022-09-24T02:58:27.117Z,17.4
2022-09-24T03:04:05.819Z,17.4
2022-09-24T03:09:26.796Z,17.4
2022-09-24T03:14:54.526Z,17.4
2022-09-24T03:20:31.658Z,17.4
2022-09-24T03:25:52.932Z,17.4
2022-09-24T03:31:14.673Z,17.4
2022-09-24T03:36:37.549Z,17.4
2022-09-24T03:41:58.016Z,17.4
2022-09-24T03:47:20.127Z,17.4
2022-09-24T03:52:41.848Z,17.3
2022-09-24T03:58:02.732Z,17.3
2022-09-24T04:03:13.476Z,17.3
2022-09-24T04:08:39.887Z,17.3
2022-09-24T04:14:00.535Z,17.3
2022-09-24T04:19:37.711Z,17.3
2022-09-24T04:25:15.097Z,17.3
2022-09-24T04:30:36.340Z,17.3
2022-09-24T04:36:14.836Z,17.3
2022-09-24T04:41:52.565Z,17.3
2022-09-24T04:47:30.579Z,17.3
2022-09-24T04:52:58.944Z,17.2
2022-09-24T04:58:36.988Z,17.2
2022-09-24T05:04:20.604Z,17.2
2022-09-24T05:10:03.154Z,17.2
2022-09-24T05:15:25.637Z,17.2
2022-09-24T05:20:49.127Z,17.2
2022-09-24T05:26:11.140Z,17.2
2022-09-24T05:31:49.585Z,17.2
2022-09-24T05:37:26.119Z,17.1
2022-09-24T05:42:39.683Z,17.1
2022-09-24T05:48:18.257Z,17.1
2022-09-24T05:53:24.669Z,17.1
2022-09-24T05:58:52.591Z,17.1
2022-09-24T06:04:03.563Z,17.1
2022-09-24T06:09:27.104Z,17.1
2022-09-24T06:14:34.367Z,17.1
2022-09-24T06:19:57.608Z,17.1
2022-09-24T06:25:19.743Z,17.1
2022-09-24T06:30:30.169Z,17.1
2022-09-24T06:35:53.869Z,17.1
2022-09-24T06:41:01.333Z,17.1
2022-09-24T06:46:23.466Z,17.1
2022-09-24T06:52:04.974Z,17.1
2022-09-24T06:57:29.119Z,17.1
2022-09-24T07:02:51.834Z,17.1
2022-09-24T07:08:30.994Z,17.1
2022-09-24T07:14:07.674Z,17.1
2022-09-24T07:19:48.138Z,17.1
2022-09-24T07:25:26.399Z,17.1
2022-09-24T07:31:03.710Z,17.1
2022-09-24T07:36:26.053Z,17.1
2022-09-24T07:42:04.688Z,17.1
2022-09-24T07:47:31.807Z,17.1
2022-09-24T07:52:53.509Z,17.1
2022-09-24T07:58:16.576Z,17.1
2022-09-24T08:03:54.661Z,17.1
2022-09-24T08:09:19.163Z,17.1
2022-09-24T08:14:41.925Z,17.1
2022-09-24T08:20:19.848Z,17.1
2022-09-24T08:25:57.329Z,17.1
2022-09-24T08:31:35.345Z,17.1
2022-09-24T08:37:16.781Z,17.1
2022-09-24T08:42:54.367Z,17.1
2022-09-24T08:48:33.135Z,17.1
2022-09-24T08:54:10.812Z,17.1
2022-09-24T08:59:35.129Z,17.1
2022-09-24T09:05:14.196Z,17.1
2022-09-24T09:11:37.080Z,17.1
2022-09-24T09:17:18.740Z,17.1
2022-09-24T09:22:40.578Z,17.1
2022-09-24T09:28:07.379Z,17.2
2022-09-24T09:33:22.329Z,17.2
2022-09-24T09:38:50.974Z,17.2
2022-09-24T09:44:13.647Z,17.2
2022-09-24T09:49:39.697Z,17.2
2022-09-24T09:55:02.277Z,17.2
2022-09-24T10:00:39.065Z,17.2
2022-09-24T10:06:08.711Z,17.3
2022-09-24T10:11:47.013Z,17.3
2022-09-24T10:17:27.121Z,17.3
2022-09-24T10:23:09.326Z,17.3
2022-09-24T10:28:31.665Z,17.3
2022-09-24T10:33:38.996Z,17.3
2022-09-24T10:38:50.501Z,17.3
2022-09-24T10:43:57.890Z,17.3
2022-09-24T10:49:20.509Z,17.3
2022-09-24T10:54:32.932Z,17.3
2022-09-24T10:59:24.891Z,17.3
2022-09-24T11:05:05.201Z,17.3
2022-09-24T11:10:44.389Z,17.3
2022-09-24T11:16:22.752Z,17.3
2022-09-24T11:21:29.686Z,17.4
2022-09-24T11:27:07.409Z,17.4
2022-09-24T11:32:45.403Z,17.4
2022-09-24T11:38:12.070Z,17.4
2022-09-24T11:43:50.029Z,17.4
2022-09-24T11:49:27.485Z,17.4
2022-09-24T11:54:53.334Z,17.4
2022-09-24T12:00:18.055Z,17.4
2022-09-24T12:05:56.877Z,17.5
2022-09-24T12:11:18.497Z,17.5
2022-09-24T12:16:40.498Z,17.5
2022-09-24T12:22:02.903Z,17.5
2022-09-24T12:27:10.704Z,17.6
2022-09-24T12:32:53.296Z,17.6
2022-09-24T12:38:21.060Z,17.6
2022-09-24T12:43:43.671Z,17.6
2022-09-24T12:49:26.894Z,17.6
2022-09-24T12:54:33.697Z,17.6
2022-09-24T13:00:12.883Z,17.6
2022-09-24T13:05:56.970Z,17.7
2022-09-24T13:11:23.452Z,17.7
2022-09-24T13:17:04.999Z,17.7
2022-09-24T13:22:47.737Z,17.7
2022-09-24T13:28:29.197Z,17.8
2022-09-24T13:34:09.396Z,17.8
2022-09-24T13:39:48.485Z,17.8
2022-09-24T13:45:27.194Z,17.8
2022-09-24T13:51:05.218Z,17.8
2022-09-24T13:56:42.453Z,17.8
2022-09-24T14:02:21.190Z,17.8
2022-09-24T14:07:59.009Z,17.8
2022-09-24T14:13:05.721Z,17.9
2022-09-24T14:18:13.560Z,17.9
2022-09-24T14:23:36.445Z,17.9
2022-09-24T14:29:13.751Z,17.9
2022-09-24T14:34:53.819Z,17.9
2022-09-24T14:40:19.611Z,17.9
2022-09-24T14:45:57.235Z,17.9
2022-09-24T14:51:35.542Z,17.9
2022-09-24T14:57:14.279Z,17.9
2022-09-24T15:02:38.842Z,18
2022-09-24T15:08:21.610Z,18
2022-09-24T15:13:59.480Z,18
2022-09-24T15:19:37.515Z,18.1
2022-09-24T15:25:18.683Z,18.1
2022-09-24T15:30:56.074Z,18.1
2022-09-24T15:36:34.695Z,18.1
2022-09-24T15:41:42.227Z,18.1
2022-09-24T15:47:21.986Z,18.1
2022-09-24T15:52:51.168Z,18.1
2022-09-24T15:58:18.545Z,18.1
2022-09-24T16:03:42.063Z,18.1
2022-09-24T16:09:19.952Z,18.1
2022-09-24T16:14:45.931Z,18.1
2022-09-24T16:20:12.043Z,18.1
2022-09-24T16:25:40.450Z,18.1
2022-09-24T16:31:19.049Z,18.1
2022-09-24T16:36:56.692Z,18.1
2022-09-24T16:42:34.459Z,18.2
2022-09-24T16:48:01.440Z,18.2
2022-09-24T16:52:53.323Z,18.2
2022-09-24T16:58:05.099Z,18.2
2022-09-24T17:03:44.105Z,18.2
2022-09-24T17:09:26.435Z,18.1
2022-09-24T17:15:11.286Z,18.2
2022-09-24T17:20:37.251Z,18.2
2022-09-24T17:26:19.159Z,18.2
2022-09-24T17:31:45.576Z,18.2
2022-09-24T17:37:52.065Z,18.2
2022-09-24T17:43:30.505Z,18.2
2022-09-24T17:48:42.624Z,18.2
2022-09-24T17:54:06.539Z,18.2
2022-09-24T17:59:43.864Z,18.2
2022-09-24T18:05:06.772Z,18.2
2022-09-24T18:10:44.451Z,18.2
2022-09-24T18:16:12.725Z,18.2
2022-09-24T18:21:35.617Z,18.2
2022-09-24T18:26:42.857Z,18.2
2022-09-24T18:32:20.260Z,18.2
2022-09-24T18:37:58.363Z,18.1
2022-09-24T18:43:21.004Z,18.2
2022-09-24T18:48:44.142Z,18.2
2022-09-24T18:54:22.134Z,18.2
2022-09-24T18:59:45.216Z,18.1
2022-09-24T19:05:09.613Z,18.1
2022-09-24T19:10:47.420Z,18.1
2022-09-24T19:16:30.129Z,18.1
2022-09-24T19:21:40.930Z,18.1
2022-09-24T19:26:47.945Z,18.1
2022-09-24T19:32:11.299Z,18.1
2022-09-24T19:37:19.414Z,18.1
2022-09-24T19:42:11.224Z,18.1
2022-09-24T19:47:18.459Z,18.1
2022-09-24T19:52:29.492Z,18.1
2022-09-24T19:57:56.311Z,18.1
2022-09-24T20:03:19.485Z,18.1
2022-09-24T20:08:32.293Z,18.1
2022-09-24T20:13:22.967Z,18.1
2022-09-24T20:18:45.947Z,18.1
2022-09-24T20:23:55.318Z,18.1
2022-09-24T20:28:48.503Z,18.1
2022-09-24T20:33:55.797Z,18.1
2022-09-24T20:39:20.480Z,18.1
2022-09-24T20:44:42.432Z,18.1
2022-09-24T20:50:11.893Z,18
2022-09-24T20:55:20.434Z,18
2022-09-24T21:00:42.563Z,18
2022-09-24T21:06:47.986Z,18
2022-09-24T21:12:25.740Z,18
2022-09-24T21:18:39.776Z,18
2022-09-24T21:24:17.245Z,18
2022-09-24T21:30:20.652Z,17.9
2022-09-24T21:35:43.165Z,17.9
2022-09-24T21:41:21.475Z,17.9
2022-09-24T21:46:43.637Z,17.9
2022-09-24T21:52:05.331Z,17.9
2022-09-24T21:56:55.949Z,17.9
2022-09-24T22:02:34.057Z,17.9
2022-09-24T22:07:56.132Z,17.9
2022-09-24T22:13:33.223Z,17.9
2022-09-24T22:19:11.022Z,17.9
2022-09-24T22:24:32.382Z,17.9
2022-09-24T22:29:29.975Z,17.9
2022-09-24T22:34:54.954Z,17.9
2022-09-24T22:40:34.192Z,17.9
2022-09-24T22:46:14.561Z,17.9
2022-09-24T22:51:38.784Z,17.9
2022-09-24T22:57:18.256Z,17.8
2022-09-24T23:03:03.459Z,17.8
2022-09-24T23:08:41.798Z,17.8
2022-09-24T23:14:04.298Z,17.8
2022-09-24T23:19:27.003Z,17.8
2022-09-24T23:25:05.079Z,17.8
2022-09-24T23:30:43.556Z,17.8
2022-09-24T23:36:20.672Z,17.8
2022-09-24T23:41:43.045Z,17.8
2022-09-24T23:47:20.308Z,17.8
2022-09-24T23:52:26.725Z,17.8
2022-09-24T23:57:48.851Z,17.8
